Time;durP1;ratioP1;P1;durP2;ratioP2;P2;SDS_P1;SDS_P2;PMS_P1;PMS_P2;Temp;Humidity;BMP_temperature;BMP_pressure;BME280_temperature;BME280_humidity;BME280_pressure;Samples;Min_cycle;Max_cycle;Signal;HPM_P1;HPM_P2
2023/12/05 00:00:30;;;;;;;30.92;15.65;;;;;;;1.85;100.00;99967.19;6087213;19;20013;-75
2023/12/05 00:02:35;;;;;;;39.75;16.75;;;;;;;1.88;100.00;99965.41;6088080;19;20027;-75
2023/12/05 00:04:42;;;;;;;32.33;15.27;;;;;;;1.86;100.00;99968.91;6087344;19;20021;-75
2023/12/05 00:06:50;;;;;;;30.45;15.57;;;;;;;1.94;100.00;99961.81;6082450;19;20344;-72
2023/12/05 00:08:55;;;;;;;29.30;15.63;;;;;;;1.96;100.00;99960.06;6087981;19;20006;-73
2023/12/05 00:10:57;;;;;;;36.10;15.38;;;;;;;1.97;100.00;99956.59;6084696;19;20577;-74
2023/12/05 00:13:03;;;;;;;30.80;15.00;;;;;;;1.94;100.00;99957.50;6085954;19;20007;-73
2023/12/05 00:15:10;;;;;;;32.63;14.20;;;;;;;1.96;100.00;99960.91;6087427;19;20032;-73
2023/12/05 00:17:17;;;;;;;35.90;15.88;;;;;;;1.95;100.00;99959.22;6089398;19;20007;-73
2023/12/05 00:19:22;;;;;;;35.13;16.70;;;;;;;1.98;100.00;99963.50;6088119;19;20010;-74
2023/12/05 00:21:27;;;;;;;28.23;13.65;;;;;;;1.97;100.00;99956.59;6084642;19;20046;-73
2023/12/05 00:23:33;;;;;;;33.97;15.48;;;;;;;1.97;100.00;99965.22;6087048;19;20017;-73
2023/12/05 00:25:38;;;;;;;35.95;16.13;;;;;;;2.01;100.00;99957.41;6084660;19;20095;-74
2023/12/05 00:27:43;;;;;;;36.45;15.85;;;;;;;1.98;100.00;99951.38;6082870;19;20020;-73
2023/12/05 00:29:49;;;;;;;32.95;17.25;;;;;;;1.98;100.00;99956.56;6086499;19;20057;-73
2023/12/05 00:31:54;;;;;;;33.88;15.77;;;;;;;1.95;100.00;99948.84;6084996;19;20514;-74
2023/12/05 00:33:59;;;;;;;29.40;14.88;;;;;;;1.98;100.00;99950.53;6087336;19;20395;-75
2023/12/05 00:36:05;;;;;;;35.92;18.88;;;;;;;1.97;100.00;99959.19;6085848;19;20643;-74
2023/12/05 00:38:10;;;;;;;33.72;15.25;;;;;;;2.01;100.00;99954.81;6086624;19;20494;-73
2023/12/05 00:40:18;;;;;;;49.05;18.17;;;;;;;1.94;100.00;99954.91;6086488;19;20008;-74
2023/12/05 00:42:23;;;;;;;40.10;18.58;;;;;;;2.01;100.00;99952.22;6085508;19;20470;-75
2023/12/05 00:44:29;;;;;;;32.05;16.70;;;;;;;2.00;100.00;99953.09;6086861;19;20486;-74
2023/12/05 00:46:32;;;;;;;37.83;16.15;;;;;;;2.01;100.00;99947.88;6085246;19;20468;-74
2023/12/05 00:48:37;;;;;;;30.48;15.88;;;;;;;2.06;100.00;99960.75;6084695;19;20030;-73
2023/12/05 00:50:42;;;;;;;41.67;17.15;;;;;;;2.03;100.00;99951.31;6085606;19;20009;-73
2023/12/05 00:52:50;;;;;;;37.28;15.48;;;;;;;2.04;100.00;99950.41;6085864;19;20015;-73
2023/12/05 00:54:55;;;;;;;42.50;17.95;;;;;;;2.09;100.00;99955.50;6086397;19;20467;-73
2023/12/05 00:57:03;;;;;;;36.65;16.95;;;;;;;2.06;100.00;99950.38;6086298;19;20107;-73
2023/12/05 00:59:08;;;;;;;34.72;16.45;;;;;;;2.07;100.00;99952.09;6086425;19;20047;-73
2023/12/05 01:01:16;;;;;;;34.88;15.23;;;;;;;2.06;100.00;99958.16;6085804;19;20042;-74
2023/12/05 01:03:21;;;;;;;35.47;15.82;;;;;;;2.09;100.00;99956.34;6086939;19;20022;-73
2023/12/05 01:05:28;;;;;;;31.00;16.00;;;;;;;2.08;100.00;99956.38;6085046;19;20272;-74
2023/12/05 01:07:34;;;;;;;38.67;19.17;;;;;;;2.07;100.00;99952.94;6086521;19;20113;-73
2023/12/05 01:09:37;;;;;;;37.88;19.50;;;;;;;2.13;100.00;99952.84;6086724;19;20010;-74
2023/12/05 01:11:42;;;;;;;36.25;16.83;;;;;;;2.13;100.00;99952.84;6086680;19;20029;-74
2023/12/05 01:13:49;;;;;;;39.28;18.75;;;;;;;2.13;100.00;99965.78;6084806;19;20011;-74
2023/12/05 01:15:56;;;;;;;35.40;16.50;;;;;;;2.14;100.00;99962.31;6086990;19;20042;-74
2023/12/05 01:18:01;;;;;;;40.50;18.63;;;;;;;2.14;100.00;99964.03;6086921;19;20042;-73
2023/12/05 01:20:11;;;;;;;45.67;17.25;;;;;;;2.12;100.00;99963.22;6086895;19;19998;-73
2023/12/05 01:22:16;;;;;;;35.63;16.70;;;;;;;2.13;100.00;99970.09;6085860;19;20368;-74
2023/12/05 01:24:19;;;;;;;40.92;18.02;;;;;;;2.13;100.00;99970.97;6085483;19;20007;-74
2023/12/05 01:26:24;;;;;;;36.65;13.98;;;;;;;2.09;100.00;99964.13;6086651;19;19999;-73
2023/12/05 01:28:29;;;;;;;34.28;16.17;;;;;;;2.15;100.00;99964.00;6086123;19;20003;-74
2023/12/05 01:30:37;;;;;;;41.05;17.50;;;;;;;2.12;100.00;99963.22;6085379;19;20006;-74
2023/12/05 01:32:42;;;;;;;35.67;17.02;;;;;;;2.10;100.00;99962.38;6086484;19;20544;-73
2023/12/05 01:34:47;;;;;;;41.88;17.27;;;;;;;2.10;100.00;99960.63;6085747;19;20006;-73
2023/12/05 01:36:52;;;;;;;35.40;15.60;;;;;;;2.16;100.00;99965.72;6085586;19;20559;-73
2023/12/05 01:38:57;;;;;;;40.70;18.55;;;;;;;2.13;100.00;99968.38;6085474;19;20007;-72
2023/12/05 01:40:59;;;;;;;38.33;18.67;;;;;;;2.20;100.00;99958.72;6084365;19;20006;-73
2023/12/05 01:43:04;;;;;;;40.33;17.65;;;;;;;2.18;100.00;99963.94;6085611;19;20049;-74
2023/12/05 01:45:11;;;;;;;27.52;14.30;;;;;;;2.20;100.00;99959.56;6084551;19;20431;-73
2023/12/05 01:47:19;;;;;;;47.40;19.85;;;;;;;2.20;100.00;99961.31;6084023;19;20568;-73
2023/12/05 01:49:24;;;;;;;34.75;14.95;;;;;;;2.20;100.00;99963.91;6083073;19;20490;-73
2023/12/05 01:51:34;;;;;;;42.97;17.50;;;;;;;2.19;100.00;99963.06;6087494;19;20629;-74
2023/12/05 01:53:42;;;;;;;41.03;17.67;;;;;;;2.15;100.00;99961.41;6081332;19;20014;-73
2023/12/05 01:55:47;;;;;;;42.40;16.73;;;;;;;2.17;100.00;99967.41;6083643;19;20019;-73
2023/12/05 01:57:54;;;;;;;45.28;19.80;;;;;;;2.20;100.00;99964.75;6085895;19;20038;-73
2023/12/05 01:59:59;;;;;;;38.85;15.70;;;;;;;2.20;100.00;99963.91;6085233;19;20375;-73
2023/12/05 02:02:05;;;;;;;42.28;17.70;;;;;;;2.15;100.00;99968.31;6086469;19;20015;-73
2023/12/05 02:04:13;;;;;;;51.75;19.48;;;;;;;2.19;100.00;99967.41;6084745;19;20062;-73
2023/12/05 02:06:18;;;;;;;46.40;19.60;;;;;;;2.15;100.00;99971.78;6084840;19;20018;-75
2023/12/05 02:08:25;;;;;;;48.03;19.63;;;;;;;2.13;100.00;99976.16;6084449;19;20072;-73
2023/12/05 02:10:30;;;;;;;45.72;19.95;;;;;;;2.17;100.00;99971.75;6083990;19;20017;-72
2023/12/05 02:12:35;;;;;;;46.53;19.67;;;;;;;2.16;100.00;99981.28;6084240;19;20039;-73
2023/12/05 02:14:40;;;;;;;45.13;19.38;;;;;;;2.20;100.00;99974.28;6083903;19;20006;-73
2023/12/05 02:16:53;;;;;;;49.75;20.60;;;;;;;2.15;100.00;99976.94;6084404;19;20470;-72
2023/12/05 02:19:06;;;;;;;50.45;20.38;;;;;;;2.17;100.00;99975.19;6084853;19;20006;-73
2023/12/05 02:21:13;;;;;;;;;;;;;;;2.20;100.00;99979.47;5980054;19;2004650;-72
2023/12/05 02:23:43;;;;;;;53.83;19.23;;;;;;;2.11;100.00;99977.91;6084583;19;19929;-73
2023/12/05 02:26:09;;;;;;;41.25;19.65;;;;;;;2.10;100.00;99983.13;6085927;19;20447;-73
2023/12/05 02:28:20;;;;;;;42.42;16.80;;;;;;;2.09;100.00;99977.09;6083180;19;20002;-73
2023/12/05 02:30:27;;;;;;;52.40;18.50;;;;;;;2.09;100.00;99977.09;6081745;19;20010;-73
2023/12/05 02:32:33;;;;;;;49.53;18.50;;;;;;;2.07;100.00;99985.78;6083732;19;20019;-72
2023/12/05 02:34:39;;;;;;;41.88;19.33;;;;;;;2.09;100.00;99981.41;6082022;19;20025;-72
2023/12/05 02:36:53;;;;;;;43.33;17.88;;;;;;;2.05;100.00;99985.78;6084617;19;20006;-75
2023/12/05 02:39:09;;;;;;;52.42;21.02;;;;;;;2.07;100.00;99975.41;6083401;19;20021;-72
2023/12/05 02:41:20;;;;;;;37.10;18.17;;;;;;;2.04;100.00;99976.31;6080030;19;20003;-71
2023/12/05 02:43:35;;;;;;;44.05;20.05;;;;;;;2.03;100.00;99978.94;6080939;19;20013;-72
2023/12/05 02:45:42;;;;;;;40.53;17.75;;;;;;;2.00;100.00;99972.06;6082722;19;20031;-72
2023/12/05 02:47:50;;;;;;;38.63;17.15;;;;;;;2.00;100.00;99979.84;6081732;19;20047;-73
2023/12/05 02:49:55;;;;;;;38.17;19.35;;;;;;;2.01;100.00;99981.56;6083414;19;20511;-73
2023/12/05 02:52:00;;;;;;;40.35;16.95;;;;;;;2.04;100.00;99983.25;6083122;19;20011;-72
2023/12/05 02:54:08;;;;;;;36.15;16.38;;;;;;;1.99;100.00;99978.16;6079670;19;20035;-73
2023/12/05 02:56:17;;;;;;;49.08;22.70;;;;;;;1.95;100.00;99981.69;6083802;19;20006;-75
2023/12/05 02:58:22;;;;;;;45.22;14.20;;;;;;;1.98;100.00;99971.25;6081076;19;20011;-73
2023/12/05 03:00:29;;;;;;;34.80;17.23;;;;;;;2.00;100.00;99977.25;6081001;19;20014;-73
2023/12/05 03:02:32;;;;;;;45.45;18.48;;;;;;;1.96;100.00;99976.47;6082213;19;20021;-73
2023/12/05 03:04:37;;;;;;;46.25;20.15;;;;;;;1.93;100.00;99968.75;6082313;19;20010;-72
2023/12/05 03:06:42;;;;;;;37.13;17.63;;;;;;;1.93;100.00;99981.72;6081373;19;20014;-72
2023/12/05 03:08:45;;;;;;;41.60;17.10;;;;;;;1.96;100.00;99980.78;6080891;19;20422;-72
2023/12/05 03:10:50;;;;;;;45.88;18.55;;;;;;;1.94;100.00;99982.56;6081895;19;20007;-73
2023/12/05 03:13:07;;;;;;;33.45;15.10;;;;;;;1.94;100.00;99982.56;6079773;19;20015;-73
2023/12/05 03:15:12;;;;;;;39.53;17.05;;;;;;;1.86;100.00;99979.25;6080898;19;20470;-73
2023/12/05 03:17:20;;;;;;;36.42;16.35;;;;;;;1.87;100.00;99981.84;6083637;19;20006;-73
2023/12/05 03:19:25;;;;;;;39.33;15.45;;;;;;;1.88;100.00;99987.88;6078353;19;20011;-73
2023/12/05 03:21:31;;;;;;;49.10;18.08;;;;;;;1.85;100.00;99977.56;6080073;19;20471;-74
2023/12/05 03:23:36;;;;;;;41.47;15.23;;;;;;;1.84;100.00;99986.19;6081940;19;20565;-72
2023/12/05 03:25:42;;;;;;;40.58;17.10;;;;;;;1.84;100.00;99981.88;6081809;19;20006;-74
2023/12/05 03:27:48;;;;;;;35.75;16.58;;;;;;;1.83;100.00;99985.34;6080493;19;20051;-74
2023/12/05 03:29:53;;;;;;;35.47;17.30;;;;;;;1.78;100.00;99982.00;6080879;19;20013;-73
2023/12/05 03:31:58;;;;;;;50.20;19.65;;;;;;;1.79;100.00;99981.13;6080754;19;20003;-74
2023/12/05 03:34:07;;;;;;;27.80;14.48;;;;;;;1.77;100.00;99987.22;6081630;19;20480;-73
2023/12/05 03:36:15;;;;;;;42.53;16.95;;;;;;;1.77;100.00;99982.88;6081313;19;20015;-74
2023/12/05 03:38:20;;;;;;;45.10;16.80;;;;;;;1.72;100.00;99982.97;6081520;19;20003;-74
2023/12/05 03:40:22;;;;;;;32.47;12.88;;;;;;;1.73;100.00;99979.47;6082696;19;20015;-75
2023/12/05 03:42:28;;;;;;;39.40;15.13;;;;;;;1.73;100.00;99978.63;6080727;19;20322;-73
2023/12/05 03:44:33;;;;;;;35.75;13.57;;;;;;;1.73;100.00;99976.03;6080991;19;20376;-72
2023/12/05 03:46:38;;;;;;;37.03;16.20;;;;;;;1.72;100.00;99980.38;6081280;19;20018;-73
2023/12/05 03:48:46;;;;;;;33.92;16.40;;;;;;;1.70;100.00;99987.31;6081092;19;20467;-72
2023/12/05 03:50:54;;;;;;;35.97;15.93;;;;;;;1.69;100.00;99983.03;6082357;19;20007;-72
2023/12/05 03:52:59;;;;;;;36.10;16.55;;;;;;;1.74;100.00;99986.38;6077714;19;20014;-73
2023/12/05 03:55:04;;;;;;;33.63;15.38;;;;;;;1.67;100.00;99984.78;6080614;19;20458;-73
2023/12/05 03:57:09;;;;;;;33.60;15.27;;;;;;;1.72;100.00;99984.69;6082634;19;20397;-72
2023/12/05 03:59:15;;;;;;;36.22;17.52;;;;;;;1.67;100.00;99989.09;6081222;19;20022;-73
2023/12/05 04:01:20;;;;;;;30.92;14.38;;;;;;;1.68;100.00;99993.38;6080580;19;20541;-72
2023/12/05 04:03:25;;;;;;;34.30;15.15;;;;;;;1.67;100.00;99992.53;6081486;19;20074;-73
2023/12/05 04:05:31;;;;;;;38.22;15.20;;;;;;;1.66;100.00;99998.63;6080096;19;20598;-72
2023/12/05 04:07:39;;;;;;;30.38;14.27;;;;;;;1.65;100.00;99996.88;6084012;19;20499;-72
2023/12/05 04:09:42;;;;;;;37.00;14.20;;;;;;;1.64;100.00;100000.38;6083917;19;20881;-73
2023/12/05 04:11:47;;;;;;;26.00;11.27;;;;;;;1.64;100.00;100002.13;6081971;19;20011;-72
2023/12/05 04:13:52;;;;;;;33.15;14.35;;;;;;;1.65;100.00;99999.47;6083273;19;20487;-72
2023/12/05 04:15:57;;;;;;;34.30;15.23;;;;;;;1.62;100.00;100003.88;6080208;19;20051;-72
2023/12/05 04:18:02;;;;;;;30.50;13.35;;;;;;;1.62;100.00;100003.88;6105724;19;20011;-72
2023/12/05 04:20:09;;;;;;;27.10;14.48;;;;;;;1.64;100.00;100010.72;6112384;19;20456;-72
2023/12/05 04:22:14;;;;;;;34.55;14.98;;;;;;;1.61;100.00;100015.13;6111260;19;20470;-73
2023/12/05 04:24:21;;;;;;;31.27;13.98;;;;;;;1.66;100.00;100019.34;6111722;19;20013;-73
2023/12/05 04:26:29;;;;;;;23.55;11.00;;;;;;;1.61;100.00;100021.16;6112487;19;20042;-72
2023/12/05 04:28:35;;;;;;;33.22;16.60;;;;;;;1.68;100.00;100025.31;6109565;19;20002;-72
2023/12/05 04:30:40;;;;;;;24.88;13.73;;;;;;;1.69;100.00;100028.78;6112064;19;20010;-72
2023/12/05 04:32:45;;;;;;;34.22;15.15;;;;;;;1.68;100.00;100030.50;6109635;19;20467;-74
2023/12/05 04:34:47;;;;;;;31.15;13.82;;;;;;;1.68;100.00;100037.41;6107787;19;20011;-73
2023/12/05 04:36:52;;;;;;;38.38;16.58;;;;;;;1.65;100.00;100033.16;6113755;19;20010;-74
2023/12/05 04:38:57;;;;;;;29.25;11.52;;;;;;;1.65;100.00;100033.16;6110589;19;20042;-73
2023/12/05 04:41:06;;;;;;;32.25;12.98;;;;;;;1.68;100.00;100046.03;6111020;19;20015;-73
2023/12/05 04:43:11;;;;;;;40.63;15.25;;;;;;;1.69;100.00;100044.34;6110504;19;20321;-73
2023/12/05 04:45:16;;;;;;;35.42;14.32;;;;;;;1.70;100.00;100043.44;6106776;19;20018;-73
2023/12/05 04:47:22;;;;;;;29.48;13.68;;;;;;;1.66;100.00;100045.22;6110678;19;20497;-72
2023/12/05 04:49:27;;;;;;;35.35;13.05;;;;;;;1.64;100.00;100051.31;6105638;19;20482;-74
2023/12/05 04:51:33;;;;;;;43.13;15.68;;;;;;;1.65;100.00;100055.59;6110514;19;20085;-76
2023/12/05 04:53:38;;;;;;;31.80;14.77;;;;;;;1.61;100.00;100046.19;6107893;19;21053;-71
2023/12/05 04:55:43;;;;;;;32.80;14.38;;;;;;;1.61;100.00;100056.56;6108806;19;20038;-72
2023/12/05 04:57:51;;;;;;;32.47;13.93;;;;;;;1.63;100.00;100053.03;6108704;19;20003;-72
2023/12/05 04:59:56;;;;;;;27.17;13.40;;;;;;;1.63;100.00;100055.63;6108465;19;20066;-72
2023/12/05 05:02:01;;;;;;;40.88;16.08;;;;;;;1.59;100.00;100048.78;6109379;19;20010;-74
2023/12/05 05:04:07;;;;;;;38.00;16.52;;;;;;;1.62;100.00;100053.91;6104159;19;20002;-74
2023/12/05 05:06:13;;;;;;;37.60;15.93;;;;;;;1.53;100.00;100054.09;6108836;19;20010;-71
2023/12/05 05:08:18;;;;;;;37.60;18.60;;;;;;;1.62;100.00;100064.28;6110729;19;20030;-74
2023/12/05 05:10:23;;;;;;;32.30;13.77;;;;;;;1.60;100.00;100060.84;6110548;19;20011;-74
2023/12/05 05:12:28;;;;;;;31.80;14.40;;;;;;;1.59;100.00;100064.34;6110079;19;20494;-71
2023/12/05 05:14:36;;;;;;;31.55;14.88;;;;;;;1.52;100.00;100058.38;6110587;19;20021;-72
2023/12/05 05:16:42;;;;;;;32.50;14.07;;;;;;;1.54;100.00;100058.38;6109427;19;20030;-72
2023/12/05 05:18:44;;;;;;;37.38;15.13;;;;;;;1.51;100.00;100063.59;6105497;19;20007;-74
2023/12/05 05:20:49;;;;;;;36.28;15.15;;;;;;;1.54;100.00;100067.00;6109465;19;20006;-74
2023/12/05 05:22:54;;;;;;;35.33;16.20;;;;;;;1.48;100.00;100063.66;6110268;19;20592;-74
2023/12/05 05:24:59;;;;;;;40.05;15.50;;;;;;;1.46;100.00;100071.44;6109514;19;20054;-74
2023/12/05 05:27:05;;;;;;;40.70;16.17;;;;;;;1.51;100.00;100073.97;6107990;19;20017;-74
2023/12/05 05:29:10;;;;;;;36.13;15.23;;;;;;;1.53;100.00;100073.06;6108015;19;20010;-74
2023/12/05 05:31:21;;;;;;;37.88;14.30;;;;;;;1.49;100.00;100075.72;6109603;19;20018;-73
2023/12/05 05:33:26;;;;;;;33.30;14.90;;;;;;;1.46;100.00;100080.94;6108927;19;20014;-74
2023/12/05 05:35:31;;;;;;;50.47;17.08;;;;;;;1.47;100.00;100072.28;6108651;19;20006;-74
2023/12/05 05:37:36;;;;;;;39.22;16.42;;;;;;;1.46;100.00;100073.19;6110741;19;20355;-76
2023/12/05 05:39:41;;;;;;;36.28;15.40;;;;;;;1.44;100.00;100075.78;6106592;19;20014;-74
2023/12/05 05:41:47;;;;;;;40.67;13.93;;;;;;;1.46;100.00;100078.34;6108997;19;20011;-75
2023/12/05 05:43:51;;;;;;;31.20;12.95;;;;;;;1.44;100.00;100077.53;6106805;19;20002;-71
2023/12/05 05:45:56;;;;;;;40.65;14.80;;;;;;;1.48;100.00;100076.59;6107702;19;20023;-71
2023/12/05 05:48:04;;;;;;;47.05;17.65;;;;;;;1.49;100.00;100080.88;6110317;19;20023;-71
2023/12/05 05:50:11;;;;;;;34.08;16.63;;;;;;;1.49;100.00;100079.16;6104227;19;20011;-71
2023/12/05 05:52:17;;;;;;;39.40;15.77;;;;;;;1.49;100.00;100089.50;6107140;19;20002;-74
2023/12/05 05:54:23;;;;;;;46.83;14.77;;;;;;;1.50;100.00;100088.66;6108799;19;20014;-72
2023/12/05 05:56:28;;;;;;;36.42;15.73;;;;;;;1.49;100.00;100088.66;6109401;19;20342;-72
2023/12/05 05:58:33;;;;;;;37.55;14.32;;;;;;;1.53;100.00;100082.56;6109516;19;20014;-71
2023/12/05 06:00:38;;;;;;;44.47;18.83;;;;;;;1.48;100.00;100085.22;6108453;19;20023;-71
2023/12/05 06:02:43;;;;;;;42.72;15.80;;;;;;;1.42;100.00;100087.91;6108471;19;20015;-71
2023/12/05 06:04:50;;;;;;;32.30;16.77;;;;;;;1.46;100.00;100096.47;6102593;19;20067;-72
2023/12/05 06:06:55;;;;;;;43.35;18.50;;;;;;;1.46;100.00;100101.66;6107683;19;20006;-72
2023/12/05 06:09:01;;;;;;;40.20;18.10;;;;;;;1.48;100.00;100094.72;6107276;19;20011;-72
2023/12/05 06:11:07;;;;;;;29.27;13.88;;;;;;;1.46;100.00;100086.97;6107224;19;20006;-73
2023/12/05 06:13:10;;;;;;;38.97;16.63;;;;;;;1.49;100.00;100093.84;6109062;19;20078;-74
2023/12/05 06:15:15;;;;;;;43.92;20.55;;;;;;;1.51;100.00;100099.84;6107090;19;20018;-71
2023/12/05 06:17:20;;;;;;;44.33;20.58;;;;;;;1.48;100.00;100097.31;6107230;19;20471;-74
2023/12/05 06:19:25;;;;;;;46.95;19.40;;;;;;;1.49;100.00;100117.13;6106171;19;20588;-75
2023/12/05 06:21:33;;;;;;;42.28;16.92;;;;;;;1.48;100.00;100105.94;6108554;19;20018;-71
2023/12/05 06:23:35;;;;;;;36.83;18.40;;;;;;;1.48;100.00;100110.25;6104363;19;20106;-74
2023/12/05 06:25:43;;;;;;;45.25;16.13;;;;;;;1.43;100.00;100112.06;6107113;19;20010;-70
2023/12/05 06:27:48;;;;;;;38.90;18.45;;;;;;;1.51;100.00;100117.97;6108064;19;20038;-74
2023/12/05 06:29:53;;;;;;;49.92;18.67;;;;;;;1.51;100.00;100123.16;6106848;19;20011;-74
2023/12/05 06:32:01;;;;;;;41.25;16.70;;;;;;;1.46;100.00;100133.56;6107545;19;20010;-73
2023/12/05 06:34:06;;;;;;;37.63;14.60;;;;;;;1.43;100.00;100125.00;6105190;19;20274;-73
2023/12/05 06:36:12;;;;;;;45.65;18.95;;;;;;;1.41;100.00;100126.75;6107571;19;20859;-71
2023/12/05 06:38:19;;;;;;;42.47;18.08;;;;;;;1.42;100.00;100128.44;6105967;19;20046;-75
2023/12/05 06:40:24;;;;;;;45.67;17.88;;;;;;;1.45;100.00;100128.41;6105645;19;20305;-72
2023/12/05 06:42:30;;;;;;;38.58;16.83;;;;;;;1.42;100.00;100141.41;6104885;19;20356;-74
2023/12/05 06:44:35;;;;;;;34.60;14.95;;;;;;;1.41;100.00;100142.28;6105978;19;20090;-75
2023/12/05 06:46:40;;;;;;;42.30;18.88;;;;;;;1.45;100.00;100143.94;6108717;19;20514;-71
2023/12/05 06:48:46;;;;;;;38.13;14.10;;;;;;;1.48;100.00;100154.28;6106979;19;20010;-71
2023/12/05 06:50:51;;;;;;;50.38;17.35;;;;;;;1.45;100.00;100151.69;6102656;19;20010;-72
2023/12/05 06:52:57;;;;;;;46.13;16.98;;;;;;;1.51;100.00;100159.41;6102755;19;20017;-70
2023/12/05 06:55:05;;;;;;;36.05;16.60;;;;;;;1.47;100.00;100162.91;6107570;19;20006;-71
2023/12/05 06:57:10;;;;;;;43.83;16.50;;;;;;;1.43;100.00;100156.06;6107666;19;20014;-71
2023/12/05 06:59:18;;;;;;;40.75;15.55;;;;;;;1.44;100.00;100165.53;6104909;19;20023;-71
2023/12/05 07:01:23;;;;;;;51.05;17.23;;;;;;;1.53;100.00;100174.03;6108387;19;20389;-74
2023/12/05 07:03:28;;;;;;;37.60;17.77;;;;;;;1.50;100.00;100179.28;6108333;19;20255;-74
2023/12/05 07:05:33;;;;;;;37.75;14.55;;;;;;;1.51;100.00;100180.97;6100148;19;20020;-71
2023/12/05 07:07:38;;;;;;;32.92;17.25;;;;;;;1.47;100.00;100184.47;6104418;19;20019;-75
2023/12/05 07:09:46;;;;;;;36.92;16.52;;;;;;;1.47;100.00;100184.47;6106665;19;20482;-72
2023/12/05 07:11:56;;;;;;;33.30;15.02;;;;;;;1.51;100.00;100186.16;6105620;19;20010;-75
2023/12/05 07:14:02;;;;;;;30.42;14.95;;;;;;;1.51;100.00;100185.28;6102763;19;20014;-74
2023/12/05 07:16:08;;;;;;;36.83;17.13;;;;;;;1.51;100.00;100188.75;6105471;19;20518;-74
2023/12/05 07:18:14;;;;;;;36.17;14.90;;;;;;;1.52;100.00;100192.19;6104437;19;20038;-72
2023/12/05 07:20:19;;;;;;;35.40;14.07;;;;;;;1.49;100.00;100190.47;6096994;19;20034;-74
2023/12/05 07:22:25;;;;;;;39.85;15.38;;;;;;;1.51;100.00;100188.75;6106644;19;20015;-72
2023/12/05 07:24:31;;;;;;;34.03;13.70;;;;;;;1.56;100.00;100190.41;6105963;19;20022;-72
2023/12/05 07:26:36;;;;;;;47.92;18.50;;;;;;;1.60;100.00;100197.25;6105947;19;20054;-72
2023/12/05 07:28:46;;;;;;;40.97;15.13;;;;;;;1.54;100.00;100203.38;6107128;19;20761;-74
2023/12/05 07:30:51;;;;;;;42.20;17.90;;;;;;;1.60;100.00;100207.59;6106968;19;20002;-74
2023/12/05 07:32:59;;;;;;;47.80;16.80;;;;;;;1.54;100.00;100208.56;6107711;19;20109;-73
2023/12/05 07:35:05;;;;;;;40.63;19.73;;;;;;;1.50;100.00;100212.03;6102202;19;20003;-73
2023/12/05 07:37:10;;;;;;;52.50;16.15;;;;;;;1.47;100.00;100202.59;6106988;19;20058;-72
2023/12/05 07:39:18;;;;;;;29.77;15.25;;;;;;;1.51;100.00;100211.19;6106557;19;20014;-74
2023/12/05 07:41:23;;;;;;;40.22;16.52;;;;;;;1.51;100.00;100216.38;6106367;19;20456;-74
2023/12/05 07:43:28;;;;;;;39.50;16.15;;;;;;;1.48;100.00;100222.44;6104151;19;20011;-73
2023/12/05 07:45:36;;;;;;;47.95;15.73;;;;;;;1.54;100.00;100218.91;6072479;19;20014;-75
2023/12/05 07:47:43;;;;;;;43.05;16.98;;;;;;;1.52;100.00;100223.25;6080828;19;20484;-73
2023/12/05 07:49:48;;;;;;;40.55;15.75;;;;;;;1.52;100.00;100218.06;6082191;19;20150;-71
2023/12/05 07:51:53;;;;;;;49.08;18.58;;;;;;;1.52;100.00;100224.09;6080345;19;20011;-72
2023/12/05 07:53:56;;;;;;;52.30;18.20;;;;;;;1.47;100.00;100231.06;6080971;19;20459;-73
2023/12/05 07:56:03;;;;;;;51.65;21.00;;;;;;;1.54;100.00;100230.13;6084318;19;20006;-71
2023/12/05 07:58:08;;;;;;;41.53;17.25;;;;;;;1.55;100.00;100233.56;6084802;19;20011;-73
2023/12/05 08:00:18;;;;;;;51.55;18.70;;;;;;;1.58;100.00;100237.84;6080794;19;20006;-73
2023/12/05 08:02:25;;;;;;;38.42;17.70;;;;;;;1.63;100.00;100241.22;6084030;19;20463;-72
2023/12/05 08:04:31;;;;;;;43.85;17.83;;;;;;;1.60;100.00;100247.31;6084580;19;20003;-74
2023/12/05 08:06:37;;;;;;;35.35;17.50;;;;;;;1.63;100.00;100244.66;6083889;19;20078;-75
2023/12/05 08:08:44;;;;;;;53.35;17.70;;;;;;;1.63;100.00;100251.59;6084643;19;20018;-71
2023/12/05 08:10:51;;;;;;;49.30;20.15;;;;;;;1.62;100.00;100253.31;6084732;19;20018;-73
2023/12/05 08:12:56;;;;;;;37.10;18.13;;;;;;;1.64;100.00;100258.50;6085439;19;20046;-74
2023/12/05 08:14:59;;;;;;;45.15;18.85;;;;;;;1.63;100.00;100262.78;6085909;19;20349;-75
2023/12/05 08:17:04;;;;;;;49.08;18.90;;;;;;;1.69;100.00;100256.69;6085235;19;20018;-73
2023/12/05 08:19:12;;;;;;;47.97;17.15;;;;;;;1.70;100.00;100255.81;6082236;19;20038;-71
2023/12/05 08:21:19;;;;;;;49.42;20.25;;;;;;;1.69;100.00;100265.31;6085736;19;20011;-71
2023/12/05 08:23:22;;;;;;;55.40;20.50;;;;;;;1.74;100.00;100263.53;6084836;19;20484;-72
2023/12/05 08:25:27;;;;;;;44.88;17.00;;;;;;;1.73;100.00;100264.38;6079677;19;20082;-71
2023/12/05 08:27:33;;;;;;;67.38;19.67;;;;;;;1.72;100.00;100267.88;6083994;19;20038;-73
2023/12/05 08:29:39;;;;;;;40.45;16.63;;;;;;;1.77;100.00;100272.16;6084700;19;20027;-71
2023/12/05 08:31:44;;;;;;;49.88;18.50;;;;;;;1.78;100.00;100277.28;6084111;19;20039;-74
2023/12/05 08:33:49;;;;;;;45.53;18.70;;;;;;;1.74;100.00;100271.31;6081130;19;20010;-71
2023/12/05 08:35:57;;;;;;;41.58;17.33;;;;;;;1.78;100.00;100279.03;6084987;19;20550;-73
2023/12/05 08:38:02;;;;;;;40.45;16.20;;;;;;;1.82;100.00;100285.84;6085143;19;20094;-72
2023/12/05 08:40:09;;;;;;;44.60;16.10;;;;;;;1.83;100.00;100290.19;6084550;19;20027;-72
2023/12/05 08:42:18;;;;;;;50.50;18.30;;;;;;;1.80;100.00;100287.63;6083881;19;20007;-75
2023/12/05 08:44:23;;;;;;;41.95;19.65;;;;;;;1.82;100.00;100301.41;6086391;19;20081;-73
2023/12/05 08:46:28;;;;;;;41.20;14.70;;;;;;;1.80;100.00;100291.09;6085104;19;20041;-74
2023/12/05 08:48:34;;;;;;;46.90;18.55;;;;;;;1.83;100.00;100295.38;6086157;19;20010;-73
2023/12/05 08:50:41;;;;;;;44.38;20.40;;;;;;;1.84;100.00;100302.25;6085473;19;20359;-70
2023/12/05 08:52:51;;;;;;;39.53;17.42;;;;;;;1.88;100.00;100307.38;5932861;19;2907349;-75
2023/12/05 08:54:56;;;;;;;45.67;19.02;;;;;;;1.89;100.00;100310.81;6084077;19;20010;-75
2023/12/05 08:57:02;;;;;;;45.58;17.25;;;;;;;1.88;100.00;100309.97;6084068;19;20035;-74
2023/12/05 08:59:07;;;;;;;49.63;20.42;;;;;;;1.91;100.00;100314.25;6084388;19;20044;-74
2023/12/05 09:01:12;;;;;;;39.95;16.58;;;;;;;1.88;100.00;100320.34;6087010;19;20414;-71
2023/12/05 09:03:18;;;;;;;44.88;17.25;;;;;;;1.91;100.00;100320.28;6087075;19;20475;-74
2023/12/05 09:05:24;;;;;;;40.13;17.88;;;;;;;1.87;100.00;100318.63;6087353;19;20272;-70
2023/12/05 09:07:29;;;;;;;50.40;20.83;;;;;;;1.91;100.00;100316.84;6081616;19;20011;-73
2023/12/05 09:09:41;;;;;;;50.97;17.48;;;;;;;1.91;100.00;100324.63;6084524;19;20014;-72
2023/12/05 09:11:47;;;;;;;60.05;19.48;;;;;;;1.86;100.00;100318.63;6084554;19;20050;-74
2023/12/05 09:13:49;;;;;;;55.17;19.70;;;;;;;1.86;100.00;100318.63;6082711;19;20058;-73
2023/12/05 09:15:54;;;;;;;44.10;16.10;;;;;;;1.81;100.00;100318.69;6081667;19;20116;-71
2023/12/05 09:18:01;;;;;;;43.80;19.23;;;;;;;1.88;100.00;100324.66;6085850;19;20014;-71
2023/12/05 09:20:09;;;;;;;47.95;18.15;;;;;;;1.84;100.00;100321.22;6083656;19;20011;-72
2023/12/05 09:22:14;;;;;;;49.22;19.13;;;;;;;1.92;100.00;100323.72;6082280;19;20464;-72
2023/12/05 09:24:19;;;;;;;41.40;20.02;;;;;;;1.86;100.00;100329.00;6083815;19;20359;-72
2023/12/05 09:26:27;;;;;;;33.80;14.25;;;;;;;1.90;100.00;100328.94;6085575;19;20007;-72
2023/12/05 09:28:34;;;;;;;49.30;19.20;;;;;;;1.90;100.00;100334.13;6082822;19;20471;-73
2023/12/05 09:30:39;;;;;;;35.95;16.50;;;;;;;1.91;100.00;100329.78;6084415;19;20014;-74
2023/12/05 09:32:45;;;;;;;42.83;16.73;;;;;;;1.86;100.00;100341.94;6082979;19;20018;-72
2023/12/05 09:34:50;;;;;;;44.97;20.58;;;;;;;1.92;100.00;100349.63;6082723;19;20015;-73